Time;durP1;ratioP1;P1;durP2;ratioP2;P2;SDS_P1;SDS_P2;PMS_P1;PMS_P2;Temp;Humidity;BMP_temperature;BMP_pressure;BME280_temperature;BME280_humidity;BME280_pressure;Samples;Min_cycle;Max_cycle;Signal;HPM_P1;HPM_P2
2023/08/01 00:00:30;;;;;;;0.83;0.77;;;16.30;99.90;;;;;;5002525;28;20189;-68
2023/08/01 00:02:58;;;;;;;1.90;1.27;;;16.30;99.90;;;;;;5006358;28;20196;-68
2023/08/01 00:05:25;;;;;;;1.57;1.47;;;16.40;99.90;;;;;;5003904;28;20204;-70
2023/08/01 00:07:54;;;;;;;1.23;1.13;;;16.40;99.90;;;;;;5003693;28;20196;-68
2023/08/01 00:10:21;;;;;;;1.30;1.20;;;16.30;99.90;;;;;;5000409;28;20719;-70
2023/08/01 00:12:47;;;;;;;1.53;1.43;;;16.30;99.90;;;;;;5005849;28;20207;-70
2023/08/01 00:15:15;;;;;;;2.30;1.60;;;16.30;99.90;;;;;;5003770;28;20719;-67
2023/08/01 00:17:41;;;;;;;1.60;1.50;;;16.40;99.90;;;;;;5005861;28;20746;-69
2023/08/01 00:20:09;;;;;;;1.80;1.70;;;16.40;99.90;;;;;;5002231;28;20201;-66
2023/08/01 00:22:36;;;;;;;2.20;1.93;;;16.40;99.90;;;;;;5003378;28;20189;-69
2023/08/01 00:25:05;;;;;;;2.50;2.30;;;16.40;99.90;;;;;;5005239;28;20235;-66
2023/08/01 00:27:33;;;;;;;1.90;1.80;;;16.40;99.90;;;;;;5003470;28;20201;-68
2023/08/01 00:29:59;;;;;;;2.00;1.90;;;16.40;99.90;;;;;;5006167;28;20288;-70
2023/08/01 00:32:26;;;;;;;3.03;2.00;;;16.40;99.90;;;;;;4999040;28;20199;-69
2023/08/01 00:34:53;;;;;;;2.03;1.83;;;16.40;99.90;;;;;;5020912;28;20708;-70
2023/08/01 00:37:20;;;;;;;3.00;2.40;;;16.40;99.90;;;;;;5001915;28;20193;-67
2023/08/01 00:39:47;;;;;;;2.10;1.90;;;16.40;99.90;;;;;;5007006;28;20207;-69
2023/08/01 00:42:15;;;;;;;2.50;1.60;;;16.40;99.90;;;;;;5003239;28;20208;-67
2023/08/01 00:44:42;;;;;;;2.10;2.00;;;16.30;99.90;;;;;;5000573;28;20805;-69
2023/08/01 00:47:10;;;;;;;1.67;1.57;;;16.20;99.90;;;;;;5003909;28;20195;-67
2023/08/01 00:49:37;;;;;;;1.47;1.37;;;16.10;99.90;;;;;;5003998;28;20833;-68
2023/08/01 00:52:05;;;;;;;1.50;1.40;;;16.00;99.90;;;;;;5005044;28;20201;-67
2023/08/01 00:54:36;;;;;;;1.53;1.43;;;16.00;99.90;;;;;;5004266;28;20217;-70
2023/08/01 00:57:03;;;;;;;2.13;1.50;;;15.90;99.90;;;;;;5000687;28;20673;-68
2023/08/01 00:59:31;;;;;;;1.57;1.47;;;15.90;99.90;;;;;;5002213;28;20913;-69
2023/08/01 01:02:00;;;;;;;1.20;1.20;;;15.90;99.90;;;;;;5006659;28;20243;-69
2023/08/01 01:04:28;;;;;;;1.50;1.40;;;15.90;99.90;;;;;;5002903;28;20232;-69
2023/08/01 01:07:00;;;;;;;1.47;1.27;;;16.00;99.90;;;;;;5005663;28;20669;-68
2023/08/01 01:09:31;;;;;;;1.93;1.30;;;15.90;99.90;;;;;;4996994;28;20207;-68
2023/08/01 01:11:58;;;;;;;1.77;1.13;;;15.90;99.90;;;;;;5004543;28;20201;-69
2023/08/01 01:14:27;;;;;;;2.03;1.53;;;15.90;99.90;;;;;;5002237;28;20993;-70
2023/08/01 01:16:55;;;;;;;1.60;1.50;;;15.90;99.90;;;;;;5005020;28;20200;-69
2023/08/01 01:19:22;;;;;;;2.63;1.30;;;15.90;99.90;;;;;;5000311;28;20282;-68
2023/08/01 01:21:50;;;;;;;1.10;1.00;;;15.80;99.90;;;;;;5001326;28;20673;-69
2023/08/01 01:24:20;;;;;;;2.23;1.40;;;15.80;99.90;;;;;;5002887;28;20259;-66
2023/08/01 01:26:48;;;;;;;1.63;1.53;;;15.80;99.90;;;;;;5006089;28;20193;-69
2023/08/01 01:29:16;;;;;;;2.50;1.50;;;15.90;99.90;;;;;;5003471;28;20665;-66
2023/08/01 01:31:43;;;;;;;1.63;1.53;;;15.80;99.90;;;;;;5000377;28;20197;-67
2023/08/01 01:34:10;;;;;;;1.53;1.43;;;15.90;99.90;;;;;;5000856;28;20212;-66
2023/08/01 01:36:37;;;;;;;1.80;1.70;;;15.80;99.90;;;;;;5003182;28;20189;-70
2023/08/01 01:39:07;;;;;;;2.67;1.90;;;15.90;99.90;;;;;;5004859;28;20185;-66
2023/08/01 01:41:35;;;;;;;2.00;1.90;;;15.80;99.90;;;;;;5004000;28;20177;-69
2023/08/01 01:44:01;;;;;;;2.13;2.03;;;15.80;99.90;;;;;;4999152;28;20582;-67
2023/08/01 01:46:28;;;;;;;2.23;2.03;;;15.80;99.90;;;;;;5000379;28;20346;-69
2023/08/01 01:48:57;;;;;;;2.03;1.83;;;15.80;99.90;;;;;;5004640;28;20744;-69
2023/08/01 01:51:25;;;;;;;2.90;2.60;;;15.80;99.90;;;;;;5001604;28;20184;-70
2023/08/01 01:53:52;;;;;;;3.73;2.57;;;15.80;99.90;;;;;;5003169;28;20904;-69
2023/08/01 01:56:20;;;;;;;2.83;2.63;;;15.80;99.90;;;;;;4994302;28;20286;-66
2023/08/01 01:58:47;;;;;;;2.60;2.40;;;15.80;99.90;;;;;;5002921;28;20200;-69
2023/08/01 02:01:14;;;;;;;3.00;2.80;;;15.80;99.90;;;;;;5001880;28;20200;-67
2023/08/01 02:03:41;;;;;;;3.60;3.30;;;15.80;99.90;;;;;;5002969;28;20901;-70
2023/08/01 02:06:07;;;;;;;3.80;3.50;;;15.80;99.90;;;;;;5004325;28;20185;-66
2023/08/01 02:08:34;;;;;;;5.07;3.93;;;15.80;99.90;;;;;;4995795;28;20196;-70
2023/08/01 02:11:02;;;;;;;4.07;3.67;;;15.80;99.90;;;;;;5003771;28;20224;-67
2023/08/01 02:13:32;;;;;;;4.37;3.97;;;15.80;99.90;;;;;;5002148;28;20283;-70
2023/08/01 02:15:59;;;;;;;4.33;3.97;;;15.90;99.90;;;;;;5004100;28;20208;-70
2023/08/01 02:18:26;;;;;;;6.10;4.30;;;15.90;99.90;;;;;;5000632;28;20201;-69
2023/08/01 02:20:53;;;;;;;5.53;5.03;;;15.90;99.90;;;;;;4998846;28;20212;-69
2023/08/01 02:23:20;;;;;;;5.93;5.40;;;15.90;99.90;;;;;;5000391;28;20187;-70
2023/08/01 02:25:47;;;;;;;5.50;5.00;;;15.90;99.90;;;;;;5003903;28;20192;-70
2023/08/01 02:28:14;;;;;;;5.90;5.07;;;15.90;99.90;;;;;;5002740;28;20231;-67
2023/08/01 02:30:43;;;;;;;5.70;5.10;;;15.90;99.90;;;;;;5001321;28;20255;-67
2023/08/01 02:33:10;;;;;;;9.57;6.47;;;16.00;99.90;;;;;;4998994;28;20672;-66
2023/08/01 02:35:38;;;;;;;8.33;6.53;;;16.00;99.90;;;;;;5001992;28;20232;-70
2023/08/01 02:38:04;;;;;;;7.20;6.47;;;16.00;99.90;;;;;;5004109;28;20687;-66
2023/08/01 02:40:31;;;;;;;7.87;7.10;;;16.00;99.90;;;;;;5000941;28;20276;-70
2023/08/01 02:42:58;;;;;;;7.07;6.47;;;16.00;99.90;;;;;;5000691;28;20197;-70
2023/08/01 02:45:25;;;;;;;7.80;7.07;;;16.00;99.90;;;;;;4996655;28;20226;-70
2023/08/01 02:47:53;;;;;;;7.77;7.07;;;16.10;99.90;;;;;;5004747;28;20573;-69
2023/08/01 02:50:20;;;;;;;8.30;7.43;;;16.10;99.90;;;;;;4999469;28;20734;-69
2023/08/01 02:52:47;;;;;;;8.07;7.37;;;16.10;99.90;;;;;;5004612;28;20192;-70
2023/08/01 02:55:14;;;;;;;8.23;7.37;;;16.10;99.90;;;;;;4996450;28;20302;-66
2023/08/01 02:57:41;;;;;;;10.50;8.00;;;16.10;99.90;;;;;;5001876;28;20251;-70
2023/08/01 03:00:11;;;;;;;10.27;8.23;;;16.10;99.90;;;;;;5001881;28;20193;-67
2023/08/01 03:02:39;;;;;;;9.43;7.90;;;16.20;99.90;;;;;;5003022;28;20200;-70
2023/08/01 03:05:09;;;;;;;8.50;7.77;;;16.20;99.90;;;;;;5001948;28;20232;-66
2023/08/01 03:07:36;;;;;;;8.90;8.10;;;16.20;99.90;;;;;;4997263;28;20941;-69
2023/08/01 03:10:03;;;;;;;10.50;8.53;;;16.20;99.90;;;;;;5003230;28;20197;-66
2023/08/01 03:12:30;;;;;;;9.43;8.53;;;16.20;99.90;;;;;;5001403;28;20215;-70
2023/08/01 03:14:57;;;;;;;11.00;8.53;;;16.20;99.90;;;;;;5004130;28;20224;-70
2023/08/01 03:17:24;;;;;;;9.50;8.53;;;16.20;99.90;;;;;;5000336;28;20204;-70
2023/08/01 03:19:51;;;;;;;10.33;9.20;;;16.20;99.90;;;;;;4996939;28;20205;-70
2023/08/01 03:22:19;;;;;;;10.60;8.97;;;16.20;99.90;;;;;;5000583;28;20239;-67
2023/08/01 03:24:46;;;;;;;10.30;9.30;;;16.20;99.90;;;;;;5003981;28;20311;-70
2023/08/01 03:27:13;;;;;;;10.50;9.13;;;16.20;99.90;;;;;;5001669;28;20208;-66
2023/08/01 03:29:40;;;;;;;10.80;9.70;;;16.20;99.90;;;;;;5001880;28;20259;-70
2023/08/01 03:32:07;;;;;;;11.73;9.40;;;16.20;99.90;;;;;;4995549;28;20208;-66
2023/08/01 03:34:34;;;;;;;11.77;9.70;;;16.20;99.90;;;;;;5003217;28;20801;-69
2023/08/01 03:37:01;;;;;;;13.23;9.47;;;16.30;99.90;;;;;;5010503;28;20749;-65
2023/08/01 03:39:29;;;;;;;10.67;9.47;;;16.30;99.90;;;;;;5007240;28;20192;-69
2023/08/01 03:41:56;;;;;;;13.40;9.77;;;16.30;99.90;;;;;;5009480;28;20619;-68
2023/08/01 03:44:23;;;;;;;12.07;10.53;;;16.30;99.90;;;;;;5000408;28;20944;-70
2023/08/01 03:46:50;;;;;;;11.33;10.23;;;16.30;99.90;;;;;;5009291;28;20192;-69
2023/08/01 03:49:18;;;;;;;12.07;9.67;;;16.30;99.90;;;;;;5005584;28;20227;-65
2023/08/01 03:51:45;;;;;;;13.43;10.60;;;16.30;99.90;;;;;;5010547;28;20215;-69
2023/08/01 03:54:12;;;;;;;12.97;11.07;;;16.30;99.90;;;;;;5004118;28;20765;-68
2023/08/01 03:56:43;;;;;;;13.40;10.53;;;16.30;99.90;;;;;;5001144;28;20220;-65
2023/08/01 03:59:09;;;;;;;12.13;10.87;;;16.30;99.90;;;;;;5006084;28;20200;-65
2023/08/01 04:01:37;;;;;;;11.63;10.53;;;16.30;99.90;;;;;;5008108;28;20974;-69
2023/08/01 04:04:04;;;;;;;14.67;11.10;;;16.30;99.90;;;;;;5008838;28;20303;-66
2023/08/01 04:06:31;;;;;;;11.77;9.57;;;16.30;99.90;;;;;;5002237;28;20184;-67
2023/08/01 04:08:59;;;;;;;10.47;9.47;;;16.30;99.90;;;;;;5006615;28;20204;-69
2023/08/01 04:11:26;;;;;;;11.20;9.23;;;16.30;99.90;;;;;;5006923;28;20895;-69
2023/08/01 04:13:54;;;;;;;11.00;9.73;;;16.30;99.90;;;;;;5010329;28;20740;-69
2023/08/01 04:16:22;;;;;;;11.97;10.83;;;16.40;99.90;;;;;;5005052;28;20282;-69
2023/08/01 04:18:49;;;;;;;15.90;10.77;;;16.40;99.90;;;;;;5005563;28;20197;-68
2023/08/01 04:21:16;;;;;;;13.40;10.20;;;16.30;99.90;;;;;;5005714;28;20200;-65
2023/08/01 04:23:43;;;;;;;12.27;10.63;;;16.30;99.90;;;;;;5008507;28;20858;-69
2023/08/01 04:26:10;;;;;;;13.47;9.50;;;16.30;99.90;;;;;;5006472;28;20188;-66
2023/08/01 04:28:37;;;;;;;11.10;9.90;;;16.30;99.90;;;;;;5009262;28;20196;-69
2023/08/01 04:31:05;;;;;;;13.33;10.37;;;16.30;99.90;;;;;;5001561;28;20744;-65
2023/08/01 04:33:32;;;;;;;11.47;10.30;;;16.30;99.90;;;;;;5008359;28;20197;-68
2023/08/01 04:35:59;;;;;;;13.03;10.60;;;16.30;99.90;;;;;;5002400;28;20212;-65
2023/08/01 04:38:25;;;;;;;12.30;10.27;;;16.30;99.90;;;;;;5005133;28;20188;-70
2023/08/01 04:40:52;;;;;;;14.10;11.93;;;16.30;99.90;;;;;;5007571;28;20200;-67
2023/08/01 04:43:19;;;;;;;17.57;10.60;;;16.30;99.90;;;;;;4999909;28;20192;-68
2023/08/01 04:45:46;;;;;;;12.93;10.10;;;16.40;99.90;;;;;;5009269;28;20212;-69
2023/08/01 04:48:14;;;;;;;14.93;11.10;;;16.40;99.90;;;;;;5002510;28;20243;-69
2023/08/01 04:50:41;;;;;;;13.07;11.20;;;16.30;99.90;;;;;;4998944;28;20247;-68
2023/08/01 04:53:08;;;;;;;15.37;10.10;;;16.30;99.90;;;;;;5002996;28;20912;-68
2023/08/01 04:55:35;;;;;;;14.07;11.00;;;16.40;99.90;;;;;;5000711;28;20303;-68
2023/08/01 04:58:02;;;;;;;11.53;10.33;;;16.30;99.90;;;;;;5003675;28;20189;-66
2023/08/01 05:00:28;;;;;;;13.57;10.47;;;16.30;99.90;;;;;;5006047;28;20189;-68
2023/08/01 05:02:55;;;;;;;13.17;10.33;;;16.30;99.90;;;;;;5018595;28;20192;-65
2023/08/01 05:05:23;;;;;;;11.40;10.23;;;16.40;99.90;;;;;;5023148;28;20208;-68
2023/08/01 05:07:50;;;;;;;11.53;9.57;;;16.40;99.90;;;;;;5018690;28;20235;-65
2023/08/01 05:10:17;;;;;;;12.10;10.30;;;16.40;99.90;;;;;;5025678;28;20207;-69
2023/08/01 05:12:44;;;;;;;12.97;9.53;;;16.40;99.90;;;;;;5024475;28;20192;-65
2023/08/01 05:15:12;;;;;;;11.13;9.93;;;16.30;99.90;;;;;;5024669;28;20211;-69
2023/08/01 05:17:39;;;;;;;12.00;10.17;;;16.40;99.90;;;;;;5011435;28;20648;-65
2023/08/01 05:20:07;;;;;;;11.53;10.20;;;16.40;99.90;;;;;;5000061;28;20815;-68
2023/08/01 05:22:36;;;;;;;10.40;9.33;;;16.40;99.90;;;;;;5006153;28;20193;-68
2023/08/01 05:25:04;;;;;;;9.67;8.77;;;16.40;99.90;;;;;;5002134;28;20221;-69
2023/08/01 05:27:31;;;;;;;10.53;9.37;;;16.40;99.90;;;;;;5006201;28;20197;-68
2023/08/01 05:29:58;;;;;;;12.73;9.30;;;16.40;99.90;;;;;;4998635;28;20192;-66
2023/08/01 05:32:25;;;;;;;11.50;10.17;;;16.40;99.90;;;;;;5003725;28;20538;-69
2023/08/01 05:34:52;;;;;;;16.20;10.83;;;16.40;99.90;;;;;;5002944;28;20213;-66
2023/08/01 05:37:18;;;;;;;10.90;9.47;;;16.40;99.90;;;;;;4988024;28;20215;-68
2023/08/01 05:39:47;;;;;;;11.63;8.70;;;16.40;99.90;;;;;;5003998;28;20219;-66
2023/08/01 05:42:13;;;;;;;11.33;8.43;;;16.40;99.90;;;;;;4998897;28;20197;-69
2023/08/01 05:44:40;;;;;;;10.87;8.90;;;16.40;99.90;;;;;;4986019;28;20236;-65
2023/08/01 05:47:07;;;;;;;9.90;8.77;;;16.30;99.90;;;;;;5003373;28;20181;-68
2023/08/01 05:49:34;;;;;;;9.63;8.63;;;16.40;99.90;;;;;;5005918;28;20650;-67
2023/08/01 05:52:01;;;;;;;10.20;9.20;;;16.40;99.90;;;;;;4984435;28;20185;-69
2023/08/01 05:54:28;;;;;;;10.67;9.17;;;16.40;99.90;;;;;;4999801;28;20573;-67
2023/08/01 05:56:56;;;;;;;10.40;8.23;;;16.40;99.90;;;;;;5001343;28;20700;-66
2023/08/01 05:59:23;;;;;;;10.70;8.73;;;16.40;99.90;;;;;;5003267;28;20219;-64
2023/08/01 06:01:50;;;;;;;10.83;8.57;;;16.40;99.90;;;;;;4985255;28;20214;-68
2023/08/01 06:04:17;;;;;;;9.67;8.77;;;16.50;99.90;;;;;;4996179;28;20213;-68
2023/08/01 06:06:43;;;;;;;10.53;9.03;;;16.40;99.90;;;;;;5000207;28;20224;-68
2023/08/01 06:09:10;;;;;;;9.97;8.47;;;16.50;99.90;;;;;;5001879;28;20204;-67
2023/08/01 06:11:37;;;;;;;11.60;7.33;;;16.50;99.90;;;;;;5006146;28;20219;-68
2023/08/01 06:14:05;;;;;;;8.00;7.20;;;16.50;99.90;;;;;;5003711;28;20680;-65
2023/08/01 06:16:32;;;;;;;11.60;7.37;;;16.40;99.90;;;;;;5005109;28;20271;-68
2023/08/01 06:18:59;;;;;;;9.47;7.17;;;16.50;99.90;;;;;;4998962;28;20211;-66
2023/08/01 06:21:26;;;;;;;8.70;7.77;;;16.50;99.90;;;;;;5006347;28;20193;-69
2023/08/01 06:23:53;;;;;;;11.33;7.50;;;16.60;99.90;;;;;;5006700;28;20766;-66
2023/08/01 06:26:20;;;;;;;10.67;7.37;;;16.60;99.90;;;;;;4986379;28;20195;-69
2023/08/01 06:28:47;;;;;;;10.50;7.33;;;16.60;99.90;;;;;;5005691;28;20201;-69
2023/08/01 06:31:15;;;;;;;9.00;6.97;;;16.70;99.90;;;;;;4998496;28;20822;-69
2023/08/01 06:33:42;;;;;;;10.03;6.63;;;16.70;99.90;;;;;;5007152;28;20193;-68
2023/08/01 06:36:09;;;;;;;7.00;6.27;;;16.80;99.90;;;;;;5003345;28;20224;-65
2023/08/01 06:38:36;;;;;;;6.63;6.03;;;16.80;99.90;;;;;;5007074;28;20560;-68
2023/08/01 06:41:03;;;;;;;10.47;6.70;;;16.80;99.90;;;;;;5002283;28;20262;-65
2023/08/01 06:43:29;;;;;;;10.83;6.17;;;16.80;99.90;;;;;;5001782;28;20203;-68
2023/08/01 06:45:56;;;;;;;6.20;5.60;;;16.80;99.90;;;;;;5005766;28;20723;-66
2023/08/01 06:48:24;;;;;;;7.03;5.47;;;16.70;99.90;;;;;;5004674;28;20247;-68
2023/08/01 06:50:52;;;;;;;6.43;5.37;;;16.70;99.90;;;;;;5006586;28;20193;-65
2023/08/01 06:53:19;;;;;;;8.23;5.10;;;16.70;99.90;;;;;;5000687;28;20251;-67
2023/08/01 06:55:46;;;;;;;6.80;5.00;;;16.70;99.90;;;;;;5004510;28;20208;-68
2023/08/01 06:58:12;;;;;;;7.13;4.67;;;16.70;99.90;;;;;;5002828;28;20196;-67
2023/08/01 07:00:39;;;;;;;6.47;4.47;;;16.80;99.90;;;;;;5006225;28;20205;-68
2023/08/01 07:03:06;;;;;;;4.83;3.53;;;16.80;99.90;;;;;;5003063;28;20197;-66
2023/08/01 07:05:34;;;;;;;5.00;3.33;;;16.80;99.90;;;;;;4998746;28;20211;-68
2023/08/01 07:08:01;;;;;;;5.27;3.90;;;16.80;99.90;;;;;;5001756;28;20189;-65
2023/08/01 07:10:28;;;;;;;5.97;3.80;;;16.80;99.90;;;;;;5004526;28;20283;-68
2023/08/01 07:12:55;;;;;;;6.37;3.67;;;16.90;99.90;;;;;;4987908;28;20680;-64
2023/08/01 07:15:22;;;;;;;7.77;3.83;;;16.90;99.90;;;;;;5003234;28;20248;-68
2023/08/01 07:17:49;;;;;;;6.67;4.00;;;16.90;99.90;;;;;;5000466;28;20235;-68
2023/08/01 07:20:16;;;;;;;6.40;4.17;;;17.00;99.90;;;;;;5000861;28;20189;-67
2023/08/01 07:22:44;;;;;;;4.83;3.77;;;17.00;99.90;;;;;;5005019;28;20193;-68
2023/08/01 07:25:11;;;;;;;3.50;3.23;;;17.10;99.90;;;;;;5000745;28;20686;-67
2023/08/01 07:27:38;;;;;;;4.63;3.70;;;17.10;99.90;;;;;;5004830;28;20625;-67
2023/08/01 07:30:06;;;;;;;5.23;3.40;;;17.20;99.90;;;;;;4992768;28;20274;-64
2023/08/01 07:32:33;;;;;;;10.03;3.70;;;17.20;99.90;;;;;;5004970;28;20193;-66
2023/08/01 07:35:02;;;;;;;6.43;3.23;;;17.20;99.90;;;;;;5000992;28;20216;-67
2023/08/01 07:37:28;;;;;;;5.70;3.37;;;17.20;99.90;;;;;;5003924;28;20216;-68
2023/08/01 07:39:57;;;;;;;5.07;3.47;;;17.10;99.90;;;;;;5001541;28;20209;-65
2023/08/01 07:42:24;;;;;;;3.83;3.30;;;17.10;99.90;;;;;;4983921;28;20287;-68
2023/08/01 07:44:51;;;;;;;4.73;3.17;;;17.10;99.90;;;;;;5003388;28;20242;-67
2023/08/01 07:47:18;;;;;;;5.50;3.53;;;17.10;99.90;;;;;;4996462;28;20208;-67
2023/08/01 07:49:45;;;;;;;7.20;3.50;;;17.20;99.90;;;;;;4994970;28;20219;-68
2023/08/01 07:52:11;;;;;;;4.00;3.40;;;17.30;99.90;;;;;;5001125;28;20969;-65
2023/08/01 07:54:38;;;;;;;3.67;3.03;;;17.30;99.90;;;;;;4994802;28;20735;-68
2023/08/01 07:57:07;;;;;;;7.13;3.57;;;17.40;99.90;;;;;;4986441;28;20258;-65
2023/08/01 07:59:34;;;;;;;5.30;3.10;;;17.40;99.90;;;;;;4995970;28;20680;-67
2023/08/01 08:02:01;;;;;;;6.97;3.53;;;17.50;99.90;;;;;;4975957;28;20219;-67
2023/08/01 08:04:28;;;;;;;7.20;3.50;;;17.50;99.90;;;;;;4999501;28;20227;-65
2023/08/01 08:06:59;;;;;;;4.67;3.83;;;17.50;99.90;;;;;;4997239;28;20192;-68
2023/08/01 08:09:26;;;;;;;5.53;3.40;;;17.50;99.90;;;;;;4987092;28;20202;-66
2023/08/01 08:11:53;;;;;;;3.20;2.90;;;17.50;99.90;;;;;;4983764;28;20213;-68
2023/08/01 08:14:23;;;;;;;4.00;3.50;;;17.60;99.90;;;;;;4995564;28;20212;-65
2023/08/01 08:16:49;;;;;;;7.13;3.80;;;17.70;99.90;;;;;;4992928;28;20213;-66
2023/08/01 08:19:16;;;;;;;4.37;3.00;;;17.80;99.90;;;;;;4984018;28;20197;-67
2023/08/01 08:21:43;;;;;;;6.97;3.03;;;17.80;99.90;;;;;;4979295;28;20315;-68
2023/08/01 08:24:10;;;;;;;4.40;3.17;;;17.80;99.90;;;;;;5006114;28;20224;-67
2023/08/01 08:26:39;;;;;;;4.20;3.03;;;17.80;99.90;;;;;;4979662;28;20193;-65
2023/08/01 08:29:06;;;;;;;4.57;2.93;;;17.80;99.90;;;;;;4997231;28;20259;-66
2023/08/01 08:31:34;;;;;;;6.70;3.10;;;17.80;99.90;;;;;;4992241;28;20209;-65
2023/08/01 08:34:01;;;;;;;4.13;3.00;;;17.80;99.90;;;;;;5001095;28;20279;-67
2023/08/01 08:36:28;;;;;;;6.03;3.03;;;17.80;99.90;;;;;;5000913;28;20220;-65
2023/08/01 08:38:55;;;;;;;4.33;2.90;;;17.90;99.90;;;;;;4999725;28;20944;-66
2023/08/01 08:41:24;;;;;;;4.20;3.00;;;17.90;99.90;;;;;;4989524;28;20280;-65
2023/08/01 08:43:55;;;;;;;2.70;2.43;;;17.90;99.90;;;;;;4984647;28;20216;-67
2023/08/01 08:46:26;;;;;;;6.30;2.80;;;17.90;99.90;;;;;;4998450;28;20619;-66
2023/08/01 08:48:54;;;;;;;3.73;2.70;;;18.00;99.90;;;;;;4996812;28;20185;-68
2023/08/01 08:51:22;;;;;;;3.60;2.97;;;18.10;99.90;;;;;;4997691;28;20251;-66
2023/08/01 08:53:52;;;;;;;3.47;3.00;;;18.00;99.90;;;;;;4989957;28;21011;-67
2023/08/01 08:56:20;;;;;;;6.13;2.90;;;18.20;99.90;;;;;;5003579;28;20208;-66
2023/08/01 08:58:48;;;;;;;5.33;3.00;;;18.30;99.90;;;;;;4984898;28;20991;-67
2023/08/01 09:01:15;;;;;;;6.43;3.10;;;18.50;99.90;;;;;;4988342;28;20954;-68
2023/08/01 09:03:43;;;;;;;4.43;2.83;;;18.50;99.90;;;;;;4999965;28;20194;-67
2023/08/01 09:06:15;;;;;;;4.27;2.70;;;18.50;99.90;;;;;;4977068;28;20211;-68
2023/08/01 09:08:48;;;;;;;4.63;3.00;;;18.50;99.90;;;;;;5003715;28;20204;-69
2023/08/01 09:11:15;;;;;;;5.80;2.67;;;18.10;99.90;;;;;;5002631;28;20272;-69
2023/08/01 09:13:42;;;;;;;2.00;1.77;;;17.70;99.90;;;;;;5000121;28;20742;-69
2023/08/01 09:16:11;;;;;;;2.80;1.53;;;17.30;99.90;;;;;;5001506;28;20545;-65
2023/08/01 09:18:48;;;;;;;3.00;2.03;;;17.20;99.90;;;;;;5025839;28;20216;-68
2023/08/01 09:21:19;;;;;;;3.10;2.10;;;17.00;99.90;;;;;;5024146;28;20184;-69
2023/08/01 09:23:46;;;;;;;2.87;2.03;;;17.00;99.90;;;;;;5028308;28;20219;-70
2023/08/01 09:26:14;;;;;;;4.30;2.27;;;17.00;99.90;;;;;;5024723;28;20180;-69
2023/08/01 09:28:42;;;;;;;3.27;2.87;;;17.00;99.90;;;;;;5023020;28;20295;-67
2023/08/01 09:31:09;;;;;;;5.03;2.80;;;17.10;99.90;;;;;;5024182;28;20192;-67
2023/08/01 09:33:40;;;;;;;5.33;3.40;;;17.00;99.90;;;;;;5028303;28;20196;-70
2023/08/01 09:36:08;;;;;;;4.17;2.43;;;17.10;99.90;;;;;;5023870;28;20198;-67
2023/08/01 09:38:37;;;;;;;3.07;2.67;;;17.10;99.90;;;;;;5028280;28;20266;-70
2023/08/01 09:41:05;;;;;;;2.90;2.47;;;17.20;99.90;;;;;;5019895;28;20196;-67
2023/08/01 09:43:35;;;;;;;4.20;2.83;;;17.30;99.90;;;;;;5028896;28;20199;-70
2023/08/01 09:46:02;;;;;;;4.60;3.03;;;17.30;99.90;;;;;;5026708;28;20204;-67
2023/08/01 09:48:31;;;;;;;5.77;3.10;;;17.30;99.90;;;;;;5026496;28;20188;-69
2023/08/01 09:51:09;;;;;;;4.03;3.07;;;17.30;99.90;;;;;;5027027;28;20196;-66
2023/08/01 09:53:48;;;;;;;6.57;5.67;;;17.50;99.90;;;;;;4998320;28;20209;-69
2023/08/01 09:56:17;;;;;;;2.80;2.60;;;17.70;99.90;;;;;;5004555;28;20235;-68
2023/08/01 09:58:45;;;;;;;3.90;3.00;;;17.80;99.90;;;;;;5008718;28;20243;-68
2023/08/01 10:01:14;;;;;;;5.30;3.70;;;18.00;99.90;;;;;;4994656;28;20268;-68
2023/08/01 10:03:45;;;;;;;2.80;2.60;;;18.10;99.90;;;;;;4986617;28;20220;-67
2023/08/01 10:06:15;;;;;;;3.23;2.50;;;18.30;99.90;;;;;;5000675;28;20200;-69
2023/08/01 10:08:43;;;;;;;3.00;2.80;;;18.30;99.90;;;;;;5010894;28;20208;-69
2023/08/01 10:11:10;;;;;;;4.87;2.50;;;18.30;99.90;;;;;;5004638;28;20247;-68
2023/08/01 10:13:38;;;;;;;2.43;2.23;;;18.30;99.90;;;;;;5005793;28;20197;-67
2023/08/01 10:16:06;;;;;;;2.43;1.60;;;18.30;99.90;;;;;;4992390;28;20208;-65
2023/08/01 10:18:34;;;;;;;3.77;1.90;;;18.40;99.90;;;;;;4985177;28;20628;-67
2023/08/01 10:21:02;;;;;;;2.20;1.70;;;18.50;99.90;;;;;;5002548;28;20196;-65
2023/08/01 10:23:30;;;;;;;5.03;1.70;;;18.60;99.90;;;;;;5001449;28;20967;-68
2023/08/01 10:26:00;;;;;;;2.43;1.70;;;18.80;99.90;;;;;;4993759;28;20208;-65
2023/08/01 10:28:33;;;;;;;3.30;1.93;;;18.90;99.90;;;;;;4998136;28;20193;-65
2023/08/01 10:31:10;;;;;;;3.07;1.40;;;19.20;99.90;;;;;;5002736;28;20211;-67
2023/08/01 10:33:38;;;;;;;1.63;1.30;;;19.30;99.90;;;;;;5004225;28;20200;-66
2023/08/01 10:36:14;;;;;;;1.57;1.27;;;19.30;99.90;;;;;;4991791;28;20201;-65
2023/08/01 10:38:49;;;;;;;2.17;1.30;;;19.50;99.90;;;;;;4998576;28;20228;-68
2023/08/01 10:41:23;;;;;;;2.57;1.00;;;19.40;99.90;;;;;;4989435;28;20261;-67
2023/08/01 10:43:50;;;;;;;2.03;1.20;;;19.40;99.90;;;;;;4995527;28;20224;-67
2023/08/01 10:46:16;;;;;;;1.50;1.33;;;19.20;99.90;;;;;;4980262;28;24628;-67
2023/08/01 10:48:50;;;;;;;1.33;1.20;;;19.10;99.90;;;;;;5004120;28;20197;-68
2023/08/01 10:51:17;;;;;;;3.83;1.50;;;19.00;99.90;;;;;;4998907;28;21016;-67
2023/08/01 10:53:44;;;;;;;1.03;1.00;;;18.80;99.90;;;;;;4996188;28;20232;-68
2023/08/01 10:56:18;;;;;;;3.67;0.97;;;18.60;99.90;;;;;;4990483;28;20208;-69
2023/08/01 10:58:47;;;;;;;2.47;1.07;;;18.60;99.90;;;;;;5001692;28;20347;-68
2023/08/01 11:01:14;;;;;;;2.27;1.00;;;18.40;99.90;;;;;;4999866;28;20190;-69
2023/08/01 11:03:41;;;;;;;1.43;1.00;;;18.30;99.90;;;;;;4988052;28;20976;-66
2023/08/01 11:06:08;;;;;;;1.70;0.97;;;18.20;99.90;;;;;;4990207;28;20193;-66
2023/08/01 11:08:36;;;;;;;0.70;0.70;;;18.10;99.90;;;;;;4997180;28;20201;-68
2023/08/01 11:11:06;;;;;;;0.80;0.80;;;17.90;99.90;;;;;;4985717;28;20204;-66
2023/08/01 11:13:34;;;;;;;1.80;0.80;;;17.70;99.90;;;;;;4988952;28;20193;-68
2023/08/01 11:16:04;;;;;;;2.23;0.50;;;17.60;99.90;;;;;;4999465;28;20624;-66
2023/08/01 11:18:31;;;;;;;0.53;0.53;;;17.50;99.90;;;;;;4986361;28;20224;-68
2023/08/01 11:20:58;;;;;;;1.97;0.60;;;17.30;99.90;;;;;;4999028;28;20192;-66
2023/08/01 11:23:29;;;;;;;0.93;0.80;;;17.20;99.90;;;;;;4989817;28;20224;-67
2023/08/01 11:25:56;;;;;;;1.13;0.60;;;17.10;99.90;;;;;;4987540;28;20188;-66
2023/08/01 11:28:24;;;;;;;0.63;0.60;;;16.90;99.90;;;;;;4989495;28;20216;-68
2023/08/01 11:30:51;;;;;;;1.17;0.60;;;16.70;99.90;;;;;;5004461;28;20196;-66
2023/08/01 11:33:21;;;;;;;0.33;0.33;;;16.50;99.90;;;;;;4978302;28;20204;-69
2023/08/01 11:35:51;;;;;;;0.23;0.23;;;16.40;99.90;;;;;;5006410;28;20228;-69
2023/08/01 11:38:19;;;;;;;0.87;0.40;;;16.20;99.90;;;;;;4995640;28;20213;-69
2023/08/01 11:40:49;;;;;;;1.73;0.50;;;16.10;99.90;;;;;;4981479;28;20197;-68
2023/08/01 11:43:16;;;;;;;2.27;0.37;;;16.00;99.90;;;;;;4983255;28;20924;-69
2023/08/01 11:45:54;;;;;;;0.50;0.40;;;16.00;99.90;;;;;;4986993;28;20210;-69
2023/08/01 11:48:22;;;;;;;1.07;0.33;;;15.90;99.90;;;;;;4979710;28;20212;-70
2023/08/01 11:50:49;;;;;;;0.50;0.30;;;16.00;99.90;;;;;;5004764;28;20304;-68
2023/08/01 11:53:20;;;;;;;1.23;0.30;;;16.10;99.90;;;;;;5003729;28;20197;-69
2023/08/01 11:55:47;;;;;;;0.30;0.30;;;16.20;99.90;;;;;;5002378;28;20712;-69
2023/08/01 11:58:14;;;;;;;0.87;0.43;;;16.30;99.90;;;;;;5000005;28;20228;-69
2023/08/01 12:00:42;;;;;;;1.37;0.30;;;16.20;99.90;;;;;;5011715;28;20201;-69
2023/08/01 12:03:12;;;;;;;0.77;0.40;;;16.20;99.90;;;;;;4999221;28;20224;-65
2023/08/01 12:05:45;;;;;;;1.03;0.40;;;16.30;99.90;;;;;;5003908;28;20303;-68
2023/08/01 12:08:13;;;;;;;0.30;0.30;;;16.40;99.90;;;;;;5005152;28;20280;-68
2023/08/01 12:10:41;;;;;;;0.30;0.30;;;16.50;99.90;;;;;;5006743;28;20224;-69
2023/08/01 12:13:20;;;;;;;0.70;0.30;;;16.50;99.90;;;;;;4998997;28;20252;-66
2023/08/01 12:15:47;;;;;;;0.60;0.40;;;16.60;99.90;;;;;;4989610;28;20228;-68
2023/08/01 12:18:21;;;;;;;0.87;0.60;;;16.70;99.90;;;;;;4992995;28;20223;-66
2023/08/01 12:20:49;;;;;;;1.03;0.43;;;16.90;99.90;;;;;;4998687;28;20205;-67
2023/08/01 12:23:16;;;;;;;1.10;0.47;;;17.00;99.90;;;;;;5001070;28;20189;-68
2023/08/01 12:25:43;;;;;;;0.80;0.67;;;17.20;99.90;;;;;;5000904;28;20791;-67
2023/08/01 12:28:09;;;;;;;2.07;0.70;;;17.50;99.90;;;;;;4977005;28;20182;-66
2023/08/01 12:30:36;;;;;;;1.23;0.60;;;17.60;99.90;;;;;;4999475;28;20251;-66
2023/08/01 12:33:03;;;;;;;1.00;0.57;;;17.60;99.90;;;;;;4999451;28;20583;-65
2023/08/01 12:35:30;;;;;;;0.50;0.40;;;17.60;99.90;;;;;;4986852;28;20588;-67
2023/08/01 12:37:58;;;;;;;1.43;0.50;;;17.50;99.90;;;;;;4989194;28;20224;-67
2023/08/01 12:40:25;;;;;;;1.40;0.53;;;17.50;99.90;;;;;;4994080;28;20315;-67
2023/08/01 12:42:52;;;;;;;1.37;0.50;;;17.50;99.90;;;;;;4988256;28;20205;-65
2023/08/01 12:45:19;;;;;;;1.43;0.50;;;17.50;99.90;;;;;;4995554;28;20688;-68